This is the latest recevied weather packets stored in our database for station/object N9UMJ-12. If no packets are shown the sender has not sent any weather packets the latest 10 day(s).
| Time | Temp. | Humidity | Pressure | Rain* | Wind** | Luminosity | Snow |
|---|---|---|---|---|---|---|---|
| 1777913718 | 21.67° C | 65% | 1009.3 hPa | 0 mm | - | 686 W/m² | - |
| 1777912518 | 21.11° C | 68% | 1009.5 hPa | 0 mm | - | 626 W/m² | - |
| 1777911921 | 20.56° C | 69% | 1009.4 hPa | 0 mm | - | 489 W/m² | - |
| 1777910719 | 19.44° C | 71% | 1009.4 hPa | 0 mm | - | 750 W/m² | - |
| 1777905317 | 17.22° C | 77% | 1010.4 hPa | 0 mm | - | 188 W/m² | - |
| 1777904120 | 17.22° C | 77% | 1009.9 hPa | 0 mm | - | 467 W/m² | - |
| 1777898118 | 12.78° C | 92% | 1009.5 hPa | 0.25 mm | - | 122 W/m² | - |
| 1777896939 | 12.78° C | 92% | 1009.6 hPa | 0.25 mm | - | 70 W/m² | - |
| 1777893340 | 12.78° C | 89% | 1009.8 hPa | 1.02 mm | - | 3 W/m² | - |
| 1777892120 | 13.89° C | 83% | 1010.3 hPa | 0.76 mm | - | 1 W/m² | - |
| 1777889731 | 12.78° C | 79% | 1010.2 hPa | 0 mm | - | 0 W/m² | - |
| 1777884922 | 13.33° C | 75% | 1011.4 hPa | 0.25 mm | - | 0 W/m² | - |
| 1777881337 | 13.33° C | 71% | 1010.4 hPa | 0 mm | - | 0 W/m² | - |
| 1777878318 | 13.33° C | 70% | 1010.8 hPa | 0 mm | - | 0 W/m² | - |
| 1777870517 | 13.33° C | 68% | 1012.3 hPa | 0 mm | - | 0 W/m² | - |
| 1777868118 | 13.89° C | 66% | 1012.5 hPa | 0 mm | - | 0 W/m² | - |
| 1777865119 | 13.89° C | 66% | 1013.1 hPa | 0 mm | - | 0 W/m² | - |
| 1777863340 | 14.44° C | 65% | 1013 hPa | 0 mm | - | 0 W/m² | - |
| 1777861520 | 14.44° C | 65% | 1013.1 hPa | 0 mm | - | 0 W/m² | - |
| 1777858521 | 15° C | 64% | 1013.1 hPa | 0 mm | - | 0 W/m² | - |
| 1777855539 | 15.56° C | 63% | 1013.7 hPa | 0 mm | - | 2 W/m² | - |
| 1777854938 | 15.56° C | 62% | 1013.8 hPa | 0 mm | - | 4 W/m² | - |
| 1777853719 | 16.11° C | 60% | 1013.8 hPa | 0 mm | - | 20 W/m² | - |
| 1777852539 | 16.67° C | 59% | 1013.6 hPa | 0 mm | - | 41 W/m² | - |
| 1777847738 | 17.22° C | 57% | 1013.5 hPa | 0 mm | - | 178 W/m² | - |
* Rain latest hour (hover to see other rain measurements)
** Current wind speed in m/s (hover to see current wind gust speed)